Time;durP1;ratioP1;P1;durP2;ratioP2;P2;SDS_P1;SDS_P2;PMS_P1;PMS_P2;Temp;Humidity;BMP_temperature;BMP_pressure;BME280_temperature;BME280_humidity;BME280_pressure;Samples;Min_cycle;Max_cycle;Signal;HPM_P1;HPM_P2
2023/05/18 00:00:14;;;;;;;12.30;3.72;;;;;;;7.40;83.39;102768.16;4921451;29;20126;-88
2023/05/18 00:06:16;;;;;;;10.35;3.58;;;;;;;7.32;84.81;102758.50;4922144;29;20451;-88
2023/05/18 00:09:04;;;;;;;10.13;3.47;;;;;;;7.37;84.63;102782.72;4953984;28;20044;-88
2023/05/18 00:12:00;;;;;;;5.90;3.00;;;;;;;7.43;84.55;102798.31;4952689;28;21251;-88
2023/05/18 00:14:40;;;;;;;5.93;2.88;;;;;;;7.19;86.00;102761.66;4920887;28;20036;-88
2023/05/18 00:17:28;;;;;;;8.18;3.33;;;;;;;7.36;83.79;102793.88;4952682;28;20048;-87
2023/05/18 00:20:09;;;;;;;11.18;3.30;;;;;;;7.19;84.16;102775.44;4921351;29;20070;-88
2023/05/18 00:23:15;;;;;;;7.60;3.08;;;;;;;7.12;84.07;102771.84;4921861;29;20052;-88
2023/05/18 00:28:48;;;;;;;7.30;3.60;;;;;;;7.06;84.69;102778.59;4923854;29;20052;-88
2023/05/18 00:31:24;;;;;;;;;;;;;;;7.20;83.28;102795.25;4951616;28;20044;-87
2023/05/18 00:34:03;;;;;;;11.27;3.60;;;;;;;7.13;85.36;102789.06;4919822;29;19922;-88
2023/05/18 00:36:58;;;;;;;7.28;3.75;;;;;;;7.11;85.09;102795.91;4921140;29;20047;-88
2023/05/18 00:42:40;;;;;;;13.43;3.47;;;;;;;7.05;86.48;102800.06;4907089;29;20039;-88
2023/05/18 00:45:35;;;;;;;8.43;3.20;;;;;;;7.01;86.50;102801.72;4919158;29;20040;-88
2023/05/18 00:48:30;;;;;;;;;;;;;;;;;;;;;
2023/05/18 00:50:58;;;;;;;8.63;3.40;;;;;;;6.93;85.11;102807.53;4922474;29;20037;-88
2023/05/18 00:54:01;;;;;;;9.73;3.30;;;;;;;6.85;85.15;102794.44;4940479;28;21584;-87
2023/05/18 00:56:47;;;;;;;8.77;3.22;;;;;;;6.83;87.19;102790.97;4918512;29;20091;-88
2023/05/18 00:59:32;;;;;;;9.57;3.80;;;;;;;6.84;86.76;102797.88;4951296;28;20098;-88
2023/05/18 01:02:19;;;;;;;10.98;3.25;;;;;;;6.71;88.05;102785.53;4919003;29;20059;-88
2023/05/18 01:05:07;;;;;;;7.88;3.20;;;;;;;6.76;87.23;102799.38;4924828;29;20043;-88
2023/05/18 01:07:56;;;;;;;9.45;4.03;;;;;;;6.56;86.14;102774.84;4949648;28;20054;-88
2023/05/18 01:10:37;;;;;;;7.55;3.28;;;;;;;6.73;87.11;102809.63;4949486;28;20103;-88
2023/05/18 01:20:10;;;;;;;8.35;3.40;;;;;;;6.66;88.45;102812.91;4903433;29;20051;-88
2023/05/18 01:23:20;;;;;;;7.40;3.30;;;;;;;6.63;87.54;102815.38;4950172;28;20118;-88
2023/05/18 01:26:38;;;;;;;;;;;;;;;;;;;;;
2023/05/18 01:29:52;;;;;;;;;;;;;;;;;;;;;
2023/05/18 01:32:41;;;;;;;;;;;;;;;6.65;86.16;102817.19;4920406;29;20792;-88
2023/05/18 01:35:17;;;;;;;8.73;3.20;;;;;;;6.50;87.81;102811.66;4937410;28;19927;-88
2023/05/18 01:38:09;;;;;;;10.23;3.15;;;;;;;6.50;87.01;102819.38;4919755;29;20035;-87
2023/05/18 01:41:13;;;;;;;8.50;3.08;;;;;;;6.34;88.19;102794.09;4939458;28;20043;-87
2023/05/18 01:44:25;;;;;;;5.72;3.30;;;;;;;6.47;90.11;102818.44;4941300;28;20044;-88
2023/05/18 01:47:28;;;;;;;9.55;3.67;;;;;;;6.27;88.64;102780.19;4949860;28;20067;-88
2023/05/18 01:50:19;;;;;;;8.50;3.30;;;;;;;6.39;90.40;102809.66;4940688;28;20050;-88
2023/05/18 01:53:42;;;;;;;9.63;3.67;;;;;;;6.24;89.76;102794.69;4951822;28;20481;-88
2023/05/18 01:56:32;;;;;;;6.43;3.50;;;;;;;6.34;90.38;102814.69;4936941;28;20044;-88
2023/05/18 02:38:01;;;;;;;11.20;3.80;;;;;;;5.96;92.03;102769.94;4917979;29;20131;-87
2023/05/18 02:41:02;;;;;;;8.05;3.60;;;;;;;6.08;92.16;102795.97;4917705;29;20580;-88
2023/05/18 02:44:23;;;;;;;7.28;3.50;;;;;;;5.94;92.11;102766.44;4917846;29;20051;-88
2023/05/18 02:47:08;;;;;;;;;;;;;;;;;;;;;
2023/05/18 02:49:42;;;;;;;8.18;3.65;;;;;;;5.95;93.48;102779.34;4918152;29;20055;-87
2023/05/18 02:52:31;;;;;;;9.20;3.35;;;;;;;5.87;94.21;102762.81;4921772;29;20126;-88
2023/05/18 02:55:16;;;;;;;;;;;;;;;;;;;;;
2023/05/18 03:01:22;;;;;;;10.60;4.07;;;;;;;5.79;93.41;102745.44;4921164;29;20537;-87
2023/05/18 03:04:15;;;;;;;9.43;3.67;;;;;;;5.94;94.51;102777.59;4915835;29;20043;-88
2023/05/18 03:07:09;;;;;;;10.05;3.70;;;;;;;5.94;94.18;102782.75;4914967;29;20054;-87
2023/05/18 03:09:51;;;;;;;10.85;4.25;;;;;;;5.88;91.45;102794.59;4922033;29;20512;-88
2023/05/18 03:12:46;;;;;;;11.65;4.05;;;;;;;5.85;94.27;102781.63;4952130;28;20039;-87
2023/05/18 03:15:23;;;;;;;10.57;3.90;;;;;;;5.68;94.54;102755.41;4950344;28;20109;-88
2023/05/18 03:18:12;;;;;;;7.60;3.47;;;;;;;5.71;93.35;102767.50;4925440;29;20047;-87
2023/05/18 03:21:10;;;;;;;;;;;;;;;;;;;;;
2023/05/18 03:23:59;;;;;;;9.52;4.10;;;;;;;5.84;95.23;102798.75;4921834;29;20120;-88
2023/05/18 03:26:51;;;;;;;12.27;4.05;;;;;;;5.78;94.89;102792.56;4921476;29;20079;-88
2023/05/18 03:29:29;;;;;;;10.45;4.40;;;;;;;5.61;95.32;102760.34;4920785;29;20485;-88
2023/05/18 03:32:04;;;;;;;6.45;3.63;;;;;;;5.80;95.88;102798.66;4952084;28;20040;-88
2023/05/18 03:35:02;;;;;;;8.45;3.75;;;;;;;5.83;95.71;102791.00;4948912;28;20050;-88
2023/05/18 03:37:34;;;;;;;12.25;4.00;;;;;;;5.81;94.93;102797.78;4926445;29;20039;-88
2023/05/18 03:43:31;;;;;;;11.82;3.85;;;;;;;5.84;95.07;102798.75;4922881;29;20063;-88
2023/05/18 03:46:17;;;;;;;11.93;4.32;;;;;;;5.69;95.80;102769.16;4921467;29;20055;-88
2023/05/18 03:49:03;;;;;;;7.43;4.05;;;;;;;5.64;95.84;102755.31;4919926;29;20044;-88
2023/05/18 03:51:42;;;;;;;7.55;4.00;;;;;;;5.69;96.33;102771.72;4951104;28;20164;-88
2023/05/18 03:54:31;;;;;;;11.18;4.20;;;;;;;5.72;96.11;102777.84;4951507;28;20071;-87
2023/05/18 03:57:10;;;;;;;12.95;4.15;;;;;;;5.72;96.82;102783.00;4950232;28;20044;-88
2023/05/18 04:00:12;;;;;;;14.82;4.75;;;;;;;5.85;95.95;102799.63;4925601;29;20035;-87
2023/05/18 04:02:45;;;;;;;11.30;4.55;;;;;;;5.66;95.97;102763.94;4920689;29;20044;-88
2023/05/18 04:05:20;;;;;;;11.30;4.30;;;;;;;5.85;96.40;102800.50;4948668;28;20039;-88
2023/05/18 04:08:06;;;;;;;13.35;4.10;;;;;;;5.87;96.36;102795.38;4948276;28;20287;-87
2023/05/18 04:11:22;;;;;;;11.57;4.10;;;;;;;5.88;97.07;102803.19;4920693;29;20131;-88
2023/05/18 04:23:27;;;;;;;9.43;4.25;;;;;;;6.01;96.44;102816.38;4943218;28;20054;-88
2023/05/18 04:26:18;;;;;;;13.32;4.40;;;;;;;5.88;96.58;102784.28;4922648;28;20054;-88
2023/05/18 04:28:51;;;;;;;9.98;4.10;;;;;;;5.89;96.77;102784.34;4943872;28;20047;-88
2023/05/18 04:31:45;;;;;;;;;;;;;;;;;;;;;
2023/05/18 04:34:48;;;;;;;11.07;4.45;;;;;;;5.99;97.72;102788.03;4942895;28;20108;-88
2023/05/18 04:37:42;;;;;;;10.25;4.20;;;;;;;6.03;97.15;102782.13;4927389;28;20063;-87
2023/05/18 04:46:28;;;;;;;9.93;4.55;;;;;;;6.35;95.80;102822.44;4914172;29;20036;-88
2023/05/18 04:49:30;;;;;;;8.57;4.40;;;;;;;6.45;96.24;102826.13;4949621;28;20050;-87
2023/05/18 04:52:10;;;;;;;10.98;4.80;;;;;;;6.55;96.21;102840.97;4922908;29;20051;-88
2023/05/18 04:54:43;;;;;;;12.73;4.47;;;;;;;6.48;96.57;102809.88;4951260;28;20040;-88
2023/05/18 04:57:35;;;;;;;13.27;4.90;;;;;;;6.61;95.29;102838.56;4919628;29;20600;-88
2023/05/18 05:06:49;;;;;;;11.23;4.68;;;;;;;6.63;94.67;102810.25;4921203;29;20102;-88
2023/05/18 05:09:37;;;;;;;11.52;4.68;;;;;;;6.74;93.38;102829.44;4950606;28;20134;-88
2023/05/18 05:12:23;;;;;;;11.80;4.88;;;;;;;6.90;95.21;102838.38;4951541;28;20525;-88
2023/05/18 05:15:10;;;;;;;16.50;5.63;;;;;;;6.96;92.25;102841.13;4950289;28;20035;-88
2023/05/18 05:18:23;;;;;;;;;;;;;;;;;;;;;
2023/05/18 05:21:05;;;;;;;12.88;5.05;;;;;;;6.98;91.24;102822.25;4921923;29;20389;-87
2023/05/18 05:24:11;;;;;;;13.77;4.95;;;;;;;6.98;88.40;102806.78;4950198;28;20120;-87
2023/05/18 05:30:15;;;;;;;14.02;4.72;;;;;;;7.29;87.39;102841.00;4914190;29;20570;-87
2023/05/18 05:32:52;;;;;;;13.93;5.05;;;;;;;7.18;91.89;102806.34;4884836;29;20052;-86
2023/05/18 05:35:30;;;;;;;14.32;5.03;;;;;;;7.24;87.64;102812.50;4888044;29;20084;-87
2023/05/18 05:38:19;;;;;;;12.10;5.28;;;;;;;7.40;89.91;102805.97;4884211;29;20318;-86
2023/05/18 05:41:18;;;;;;;11.43;4.88;;;;;;;7.77;89.41;102807.59;4886912;29;20039;-87
2023/05/18 05:44:01;;;;;;;14.88;5.22;;;;;;;8.47;84.59;102826.97;4896045;29;20040;-87
2023/05/18 05:47:01;;;;;;;11.88;4.70;;;;;;;8.86;88.03;102837.09;4883250;29;20571;-86
2023/05/18 05:49:52;;;;;;;12.93;4.80;;;;;;;8.83;84.52;102824.09;4869637;29;20055;-87
2023/05/18 05:52:33;;;;;;;10.85;4.68;;;;;;;8.55;84.38;102809.88;4903899;29;20040;-87
2023/05/18 05:55:17;;;;;;;11.52;4.90;;;;;;;8.40;82.63;102796.69;4901719;29;20123;-86
2023/05/18 05:58:04;;;;;;;12.38;4.63;;;;;;;8.50;81.46;102830.47;4902806;29;20044;-86
2023/05/18 06:00:52;;;;;;;10.95;4.75;;;;;;;8.46;83.74;102827.81;4903834;29;20055;-86
2023/05/18 06:03:44;;;;;;;8.90;4.82;;;;;;;8.53;84.02;102843.44;4882414;29;20075;-86
2023/05/18 06:09:36;;;;;;;9.43;4.22;;;;;;;8.48;78.87;102836.47;4897086;29;20432;-88
2023/05/18 06:12:12;;;;;;;9.27;4.63;;;;;;;8.34;80.74;102792.28;4881937;29;20103;-87
2023/05/18 06:15:03;;;;;;;10.35;4.65;;;;;;;8.54;79.02;102831.38;4899353;29;20044;-87
2023/05/18 06:17:50;;;;;;;;;;;;;;;;;;;;;
2023/05/18 06:20:29;;;;;;;10.38;4.63;;;;;;;8.84;78.42;102810.31;4898528;29;20036;-87
2023/05/18 06:23:13;;;;;;;13.82;4.78;;;;;;;9.11;77.72;102806.44;4903871;29;20410;-87
2023/05/18 06:26:08;;;;;;;10.68;5.15;;;;;;;9.35;77.91;102820.53;4882262;29;20129;-87
2023/05/18 06:28:52;;;;;;;15.40;5.28;;;;;;;9.43;79.01;102840.50;4905235;29;20111;-87
2023/05/18 06:31:35;;;;;;;11.27;4.72;;;;;;;9.24;77.76;102807.47;4897445;29;20052;-88
2023/05/18 06:34:15;;;;;;;12.82;5.10;;;;;;;9.37;75.11;102849.88;4947605;28;20047;-88
2023/05/18 06:37:02;;;;;;;12.48;5.00;;;;;;;9.18;74.19;102811.69;4946516;28;20043;-89
2023/05/18 06:40:02;;;;;;;10.20;4.63;;;;;;;9.23;73.73;102820.38;4950199;28;20036;-86
2023/05/18 06:42:37;;;;;;;11.45;5.25;;;;;;;9.35;73.02;102816.22;4951146;28;20428;-86
2023/05/18 06:45:22;;;;;;;16.15;5.47;;;;;;;9.65;77.64;102822.63;4954150;28;20594;-86
2023/05/18 07:01:19;;;;;;;10.60;4.57;;;;;;;12.66;66.58;102835.72;4920557;29;20175;-87
2023/05/18 07:10:52;;;;;;;15.18;4.88;;;;;;;15.62;61.68;102838.22;4922189;29;20050;-90
2023/05/18 07:14:14;;;;;;;;;;;;;;;;;;;;;
2023/05/18 07:17:28;;;;;;;;;;;;;;;;;;;;;
2023/05/18 07:20:15;;;;;;;11.40;4.97;;;;;;;15.60;52.32;102856.53;4922505;29;20520;-87
2023/05/18 07:23:02;;;;;;;11.32;4.75;;;;;;;16.29;52.12;102832.91;4954987;28;20159;-87
2023/05/18 07:25:46;;;;;;;13.70;4.85;;;;;;;16.60;50.46;102828.03;4926224;29;20039;-88
2023/05/18 07:28:47;;;;;;;9.82;4.97;;;;;;;16.65;55.75;102831.44;4944840;28;20079;-87
2023/05/18 07:31:20;;;;;;;11.25;5.07;;;;;;;16.61;51.08;102834.16;4919304;29;20489;-85
2023/05/18 07:34:07;;;;;;;11.93;5.05;;;;;;;16.55;51.32;102846.44;4950607;28;20044;-86
2023/05/18 07:36:57;;;;;;;11.73;5.03;;;;;;;16.33;51.49;102847.66;4942263;28;20445;-88
2023/05/18 07:39:49;;;;;;;12.07;5.00;;;;;;;16.22;49.55;102854.81;4952918;28;20044;-88
2023/05/18 07:42:26;;;;;;;10.43;4.68;;;;;;;16.89;47.02;102864.22;4954212;28;20036;-88
2023/05/18 07:45:04;;;;;;;12.98;4.60;;;;;;;17.75;50.77;102854.66;4955105;28;20058;-87
2023/05/18 07:47:51;;;;;;;10.35;4.85;;;;;;;18.56;45.79;102871.22;4946881;28;20031;-88
2023/05/18 07:50:39;;;;;;;11.43;4.15;;;;;;;19.22;43.45;102851.97;4955343;28;20048;-88
2023/05/18 07:53:40;;;;;;;8.57;4.50;;;;;;;20.10;43.41;102868.69;4955215;28;20036;-87
2023/05/18 07:59:46;;;;;;;9.50;4.03;;;;;;;20.40;40.12;102855.47;4893486;29;20134;-86
2023/05/18 08:02:48;;;;;;;11.35;4.63;;;;;;;19.89;44.32;102871.97;4955533;28;20174;-86
2023/05/18 08:05:21;;;;;;;9.23;4.07;;;;;;;19.29;41.28;102877.19;4941881;28;20039;-86
2023/05/18 08:07:50;;;;;;;9.05;4.28;;;;;;;19.02;41.21;102877.94;4952886;28;20550;-88
2023/05/18 08:38:41;;;;;;;11.82;4.65;;;;;;;18.01;45.71;102859.38;4952355;23;20066;-85
2023/05/18 08:41:18;;;;;;;10.48;4.68;;;;;;;17.91;43.39;102868.31;4917691;29;21164;-85
2023/05/18 08:44:05;;;;;;;8.10;4.60;;;;;;;17.48;46.27;102872.69;4908252;29;20660;-86
2023/05/18 08:46:55;;;;;;;11.13;4.78;;;;;;;16.79;47.79;102863.50;4905908;29;20043;-87
2023/05/18 08:49:37;;;;;;;9.80;4.18;;;;;;;16.57;46.35;102841.16;4911590;29;20044;-86
2023/05/18 08:52:10;;;;;;;12.77;5.07;;;;;;;16.30;46.57;102837.25;4911226;29;20083;-86
2023/05/18 08:55:01;;;;;;;7.53;3.97;;;;;;;15.74;45.93;102841.53;4921126;29;20079;-86
2023/05/18 08:57:56;;;;;;;9.95;4.00;;;;;;;15.76;48.65;102851.97;4922013;29;20043;-87
2023/05/18 09:00:44;;;;;;;8.82;3.83;;;;;;;15.51;48.23;102846.16;4921122;29;20044;-86
2023/05/18 09:03:41;;;;;;;12.15;4.20;;;;;;;15.57;48.05;102843.47;4905161;29;20040;-87
2023/05/18 09:06:23;;;;;;;11.15;4.55;;;;;;;15.13;49.96;102836.13;4914772;29;20044;-86
2023/05/18 09:09:10;;;;;;;13.38;4.35;;;;;;;14.85;49.13;102853.84;4921610;29;20043;-87
2023/05/18 09:12:14;;;;;;;12.60;4.30;;;;;;;14.85;50.12;102864.28;4903368;29;20040;-87
2023/05/18 09:14:55;;;;;;;13.23;4.30;;;;;;;14.88;47.72;102842.47;4897062;29;20095;-87
2023/05/18 09:17:32;;;;;;;14.63;4.35;;;;;;;14.66;48.98;102846.19;4920399;29;20075;-87
2023/05/18 09:20:36;;;;;;;10.98;4.40;;;;;;;14.77;49.53;102826.91;4903757;29;20149;-88
2023/05/18 09:23:16;;;;;;;11.35;4.13;;;;;;;14.82;48.51;102826.88;4907895;29;20051;-87
2023/05/18 09:26:11;;;;;;;10.52;4.00;;;;;;;14.88;52.74;102835.50;4903720;29;20059;-88
2023/05/18 09:28:53;;;;;;;9.10;4.10;;;;;;;15.02;50.28;102825.78;4920030;29;20036;-88
2023/05/18 09:31:42;;;;;;;12.52;4.57;;;;;;;15.54;51.57;102834.84;4908802;29;20040;-88
2023/05/18 09:34:27;;;;;;;9.15;4.03;;;;;;;15.63;49.70;102803.31;4904119;29;20043;-87
2023/05/18 09:37:09;;;;;;;14.10;4.65;;;;;;;16.00;48.15;102837.69;4920429;29;20035;-87
2023/05/18 09:40:05;;;;;;;11.25;4.30;;;;;;;15.78;48.78;102814.44;4901280;29;20061;-88
2023/05/18 09:42:48;;;;;;;10.02;4.25;;;;;;;15.82;50.06;102803.97;4916752;29;20223;-87
2023/05/18 09:45:31;;;;;;;11.88;4.68;;;;;;;16.04;50.91;102811.44;4918719;29;20129;-87
2023/05/18 09:48:12;;;;;;;11.10;4.43;;;;;;;16.07;45.34;102832.34;4911841;29;20051;-87
2023/05/18 09:51:03;;;;;;;12.65;4.05;;;;;;;16.36;50.84;102820.56;4911877;29;20044;-87
2023/05/18 09:54:15;;;;;;;9.63;4.55;;;;;;;16.61;47.97;102815.81;4918094;29;20039;-87
2023/05/18 09:57:03;;;;;;;12.35;4.05;;;;;;;16.51;45.53;102820.34;4926994;29;20046;-87
2023/05/18 09:59:40;;;;;;;11.65;4.47;;;;;;;16.36;45.98;102802.25;4932460;29;20166;-87
2023/05/18 10:02:26;;;;;;;9.18;4.68;;;;;;;16.16;45.51;102802.56;4912603;29;20044;-87
2023/05/18 10:05:20;;;;;;;10.75;4.97;;;;;;;16.05;45.91;102812.31;4921906;29;20043;-87
2023/05/18 10:15:38;;;;;;;9.77;5.03;;;;;;;16.11;47.66;102800.00;4855488;29;20032;-87
2023/05/18 10:18:28;;;;;;;12.32;5.10;;;;;;;15.72;45.12;102796.22;4835966;29;20056;-87
2023/05/18 10:21:13;;;;;;;10.38;5.40;;;;;;;15.72;47.12;102805.81;4768189;29;20059;-87
2023/05/18 10:23:47;;;;;;;13.35;5.57;;;;;;;15.75;47.74;102809.28;4798617;29;21139;-87
2023/05/18 10:29:45;;;;;;;11.68;5.55;;;;;;;15.72;48.08;102806.69;4927128;29;20103;-87
2023/05/18 10:32:29;;;;;;;12.32;5.82;;;;;;;15.50;49.14;102796.50;4928093;29;20130;-87
2023/05/18 10:37:52;;;;;;;12.00;5.72;;;;;;;15.51;48.27;102813.91;4926167;29;21352;-88
2023/05/18 10:40:37;;;;;;;13.02;6.35;;;;;;;15.30;49.22;102770.63;4903268;29;20045;-88
2023/05/18 10:43:26;;;;;;;;;;;;;;;15.56;49.48;102814.78;4902322;29;20055;-88
2023/05/18 10:46:07;;;;;;;11.25;5.78;;;;;;;15.28;49.92;102790.69;4907028;29;19926;-88
2023/05/18 10:49:00;;;;;;;12.05;5.93;;;;;;;15.45;50.25;102800.91;4907044;29;20040;-88
2023/05/18 10:51:54;;;;;;;12.07;5.47;;;;;;;15.41;49.96;102789.66;4894363;29;20044;-87
2023/05/18 10:54:38;;;;;;;10.10;5.32;;;;;;;15.46;49.04;102790.47;4891931;29;20040;-87
2023/05/18 10:57:20;;;;;;;11.18;5.20;;;;;;;15.39;48.90;102804.47;4914451;29;20048;-87
2023/05/18 11:00:05;;;;;;;12.73;5.57;;;;;;;15.30;49.44;102788.91;4906206;29;20036;-88
2023/05/18 11:02:56;;;;;;;12.68;5.70;;;;;;;15.22;47.91;102785.50;4908330;29;20092;-88
2023/05/18 11:05:28;;;;;;;12.15;5.50;;;;;;;15.08;48.65;102770.00;4897197;29;20055;-87
2023/05/18 11:08:10;;;;;;;9.65;5.28;;;;;;;15.25;49.19;102790.72;4901339;29;20055;-87
2023/05/18 11:11:03;;;;;;;11.75;5.00;;;;;;;15.08;46.79;102763.94;4906650;29;20043;-88
2023/05/18 11:13:58;;;;;;;10.43;5.28;;;;;;;14.98;48.72;102755.34;4905934;29;20040;-88
2023/05/18 11:16:39;;;;;;;14.25;5.53;;;;;;;14.95;49.39;102751.00;4852191;29;20092;-88
2023/05/18 11:19:23;;;;;;;13.90;5.45;;;;;;;15.03;50.13;102751.78;4896824;29;20077;-88
2023/05/18 11:22:20;;;;;;;;;;;;;;;;;;;;;
2023/05/18 11:25:29;;;;;;;14.60;5.50;;;;;;;15.54;49.21;102772.97;4907328;29;20043;-87
2023/05/18 11:28:30;;;;;;;10.60;4.88;;;;;;;15.56;49.29;102760.72;4892881;29;20175;-86
2023/05/18 11:31:46;;;;;;;;;;;;;;;;;;;;;
2023/05/18 11:34:53;;;;;;;12.65;5.70;;;;;;;15.74;48.13;102768.31;4909914;29;20574;-86
2023/05/18 11:37:52;;;;;;;10.95;5.70;;;;;;;15.74;48.58;102770.94;4911291;29;20183;-86
2023/05/18 12:40:21;;;;;;;12.25;5.40;;;;;;;15.55;49.32;102717.19;5053622;23;20493;-79
2023/05/18 12:42:51;;;;;;;10.55;5.63;;;;;;;15.55;47.82;102716.31;4953111;28;21083;-79
2023/05/18 12:48:17;;;;;;;10.65;5.60;;;;;;;15.71;49.80;102728.25;5306885;23;20082;31
2023/05/18 12:50:50;;;;;;;10.48;5.25;;;;;;;15.67;47.14;102727.47;5116929;23;20066;-78
2023/05/18 12:53:16;;;;;;;10.02;5.22;;;;;;;15.58;47.32;102717.13;5055202;23;20030;-80
2023/05/18 12:55:41;;;;;;;11.27;5.63;;;;;;;15.61;47.33;102724.06;4966433;28;20058;-82
2023/05/18 12:58:13;;;;;;;8.93;5.22;;;;;;;15.57;46.83;102735.44;5319984;23;20078;-81
2023/05/18 13:03:15;;;;;;;11.40;5.20;;;;;;;15.44;46.90;102721.66;5194063;23;20116;-80
2023/05/18 13:08:16;;;;;;;11.80;5.00;;;;;;;15.34;45.84;102704.38;5065144;23;20059;-80
2023/05/18 13:21:11;;;;;;;9.43;5.05;;;;;;;15.10;46.40;102700.31;5252726;23;20067;-76
2023/05/18 13:26:23;;;;;;;9.90;4.93;;;;;;;15.13;50.65;102705.53;5104993;23;20055;-76
2023/05/18 13:28:51;;;;;;;10.68;5.70;;;;;;;15.03;47.50;102702.16;5141165;23;20055;-77
2023/05/18 13:31:17;;;;;;;10.63;4.88;;;;;;;14.97;49.19;102694.41;5274816;23;20532;-76
2023/05/18 13:33:43;;;;;;;14.80;5.28;;;;;;;14.89;49.47;102696.22;5116934;23;20071;-78
2023/05/18 13:36:08;;;;;;;11.55;5.40;;;;;;;14.85;48.18;102694.56;5139434;23;20061;-75
2023/05/18 13:38:36;;;;;;;10.65;4.95;;;;;;;14.79;49.31;102681.56;5080103;23;20079;-75
2023/05/18 13:43:31;;;;;;;9.52;4.97;;;;;;;14.88;48.40;102691.88;5114116;23;20057;-75
2023/05/18 13:49:25;;;;;;;9.98;5.07;;;;;;;14.89;49.33;102685.78;5150961;23;20029;-78
2023/05/18 13:52:22;;;;;;;11.43;5.28;;;;;;;14.94;48.19;102683.97;5233952;23;20233;-87
2023/05/18 13:54:48;;;;;;;15.57;5.25;;;;;;;14.94;49.11;102677.91;4935882;29;20059;-75
2023/05/18 13:57:13;;;;;;;10.25;5.10;;;;;;;14.93;49.79;102671.84;5033989;23;20059;-78
2023/05/18 14:00:04;;;;;;;11.15;5.40;;;;;;;14.92;49.62;102650.94;4983420;23;20052;-87
2023/05/18 14:02:50;;;;;;;;;;;;;;;;;;;;;
2023/05/18 14:05:22;;;;;;;11.30;5.25;;;;;;;15.03;49.80;102664.72;4946558;28;20047;-87
2023/05/18 14:08:16;;;;;;;11.40;5.28;;;;;;;15.00;49.93;102649.97;4944377;28;20384;-87
2023/05/18 14:11:17;;;;;;;;;;;;;;;;;;;;;
2023/05/18 14:14:42;;;;;;;13.13;5.03;;;;;;;15.26;49.08;102660.06;4945842;28;20046;-87
2023/05/18 14:17:40;;;;;;;9.10;4.65;;;;;;;15.03;48.69;102626.41;4960256;28;20395;-87
2023/05/18 14:21:40;;;;;;;10.18;5.35;;;;;;;15.13;47.39;102636.75;4942350;28;20133;-87
2023/05/18 14:24:06;;;;;;;;;;;;;;;;;;;;;
2023/05/18 14:26:43;;;;;;;11.38;5.60;;;;;;;15.18;46.51;102637.53;4946281;28;20404;-88
2023/05/18 14:29:20;;;;;;;9.65;5.18;;;;;;;15.25;47.33;102628.72;4944607;28;20133;-87
2023/05/18 14:31:49;;;;;;;10.07;5.22;;;;;;;15.33;50.15;102632.09;4946209;28;21136;-87
2023/05/18 14:34:37;;;;;;;14.35;5.28;;;;;;;15.47;47.79;102638.00;4945205;28;20039;-87
2023/05/18 14:37:20;;;;;;;10.55;4.80;;;;;;;15.62;47.32;102657.84;4929599;28;20047;-87
2023/05/18 14:39:56;;;;;;;10.55;4.90;;;;;;;15.43;46.68;102631.06;4944235;28;20039;-87
2023/05/18 14:42:47;;;;;;;12.45;5.63;;;;;;;15.43;44.20;102625.84;4943192;28;20046;-88
2023/05/18 14:45:29;;;;;;;14.27;4.97;;;;;;;15.45;47.48;102628.44;4945053;28;20039;-88
2023/05/18 14:48:14;;;;;;;8.65;4.82;;;;;;;15.41;47.79;102618.03;4944244;28;20401;-87
2023/05/18 14:51:19;;;;;;;10.00;5.45;;;;;;;15.35;46.23;102612.03;4959617;28;20549;-88
2023/05/18 14:54:15;;;;;;;10.27;5.05;;;;;;;15.40;47.22;102649.41;4946086;28;20085;-87
2023/05/18 14:57:12;;;;;;;11.98;5.13;;;;;;;15.17;47.91;102628.84;4943973;28;20162;-87
2023/05/18 15:00:26;;;;;;;11.23;5.18;;;;;;;15.01;47.32;102630.78;4944513;28;20547;-87
2023/05/18 15:03:58;;;;;;;10.65;5.47;;;;;;;14.97;46.91;102647.38;4931464;28;20058;-87
2023/05/18 15:06:37;;;;;;;11.45;5.47;;;;;;;14.91;49.02;102644.00;4959319;28;20494;-87
2023/05/18 15:13:25;;;;;;;10.40;5.45;;;;;;;14.97;47.12;102642.16;4888594;29;20025;-88
2023/05/18 15:19:08;;;;;;;8.38;5.13;;;;;;;15.03;48.17;102631.63;4925842;29;20040;-87
2023/05/18 15:22:15;;;;;;;13.10;5.82;;;;;;;15.11;48.48;102621.09;4922397;29;20559;-87
2023/05/18 15:25:29;;;;;;;;;;;;;;;;;;;;;
2023/05/18 15:28:23;;;;;;;10.33;5.63;;;;;;;15.18;49.43;102608.81;4947939;28;20045;-87
2023/05/18 15:35:09;;;;;;;11.48;5.95;;;;;;;15.32;45.69;102612.94;4949175;28;20102;-87
2023/05/18 15:38:06;;;;;;;11.88;5.32;;;;;;;15.52;46.50;102643.13;4963759;28;20091;-87
2023/05/18 15:41:32;;;;;;;10.30;5.47;;;;;;;15.37;46.12;102608.50;4959920;28;20111;-87
2023/05/18 15:44:39;;;;;;;10.57;5.80;;;;;;;15.46;46.98;102604.88;4891756;29;20040;-87
2023/05/18 15:47:17;;;;;;;8.32;5.18;;;;;;;15.60;47.59;102610.78;4901793;28;20045;-87
2023/05/18 15:53:23;;;;;;;8.27;5.78;;;;;;;15.57;45.95;102595.16;4955879;28;20209;-87
2023/05/18 15:56:08;;;;;;;;;;;;;;;;;;;;;
2023/05/18 16:02:22;;;;;;;11.13;5.80;;;;;;;15.62;47.32;102618.63;4957775;28;20130;-87
2023/05/18 16:05:40;;;;;;;;;;;;;;;;;;;;;
2023/05/18 16:11:59;;;;;;;11.50;6.03;;;;;;;15.48;46.81;102587.44;4936159;28;20649;-87
2023/05/18 16:18:29;;;;;;;10.98;6.13;;;;;;;15.63;46.99;102604.63;4944654;28;20042;-87
2023/05/18 16:21:17;;;;;;;10.40;5.85;;;;;;;15.44;47.81;102593.59;4941743;28;20043;-87
2023/05/18 16:24:14;;;;;;;12.25;5.85;;;;;;;15.32;46.71;102585.94;4938793;28;20464;-87
2023/05/18 16:27:20;;;;;;;9.68;6.00;;;;;;;15.38;47.74;102594.56;4919426;28;20094;-87
2023/05/18 16:29:57;;;;;;;10.55;5.80;;;;;;;15.45;48.38;102604.91;4926768;28;20035;-87
2023/05/18 16:32:37;;;;;;;12.02;6.10;;;;;;;15.40;49.06;102566.66;4921831;28;20031;-87
2023/05/18 16:35:27;;;;;;;10.15;6.65;;;;;;;15.50;46.09;102588.25;4920226;28;20039;-87
2023/05/18 16:38:15;;;;;;;9.98;5.97;;;;;;;15.63;46.74;102596.78;4919998;29;20039;-87
2023/05/18 16:44:43;;;;;;;14.05;6.53;;;;;;;15.61;47.33;102606.44;4911603;29;20047;-87
2023/05/18 16:47:17;;;;;;;12.98;6.35;;;;;;;15.39;49.04;102580.59;4920116;29;20138;-87
2023/05/18 16:50:40;;;;;;;11.48;6.20;;;;;;;15.46;47.99;102599.66;4901285;29;20040;-87
2023/05/18 16:53:57;;;;;;;;;;;;;;;;;;;;;
2023/05/18 17:03:50;;;;;;;11.80;6.75;;;;;;;15.41;47.97;102602.34;4937099;28;20528;-87
2023/05/18 17:10:16;;;;;;;11.27;6.13;;;;;;;15.33;48.25;102600.75;4944979;28;20506;-87
2023/05/18 17:13:16;;;;;;;10.65;6.03;;;;;;;15.26;47.47;102596.50;4935159;28;20536;-87
2023/05/18 17:18:54;;;;;;;14.80;7.22;;;;;;;15.05;46.28;102573.28;4948008;28;20053;-87
2023/05/18 17:22:01;;;;;;;10.85;5.85;;;;;;;15.07;48.84;102576.75;4943491;28;20789;-87
2023/05/18 17:25:26;;;;;;;13.68;6.20;;;;;;;15.02;47.32;102571.59;4945625;28;20448;-87
2023/05/18 17:28:23;;;;;;;10.37;6.10;;;;;;;15.02;48.42;102589.88;4936645;28;20043;-87
2023/05/18 17:31:23;;;;;;;10.30;5.82;;;;;;;14.87;47.83;102567.47;4946683;28;20699;-87
2023/05/18 17:37:50;;;;;;;10.43;6.00;;;;;;;14.93;49.72;102595.25;4940454;28;20105;-88
2023/05/18 17:41:11;;;;;;;11.50;6.25;;;;;;;14.91;48.42;102592.63;4956342;28;20042;-87
2023/05/18 17:44:20;;;;;;;10.30;6.15;;;;;;;14.76;50.08;102573.69;4881914;29;20044;-87
2023/05/18 17:47:20;;;;;;;10.48;6.20;;;;;;;14.88;49.39;102592.66;4810967;29;20119;-87
2023/05/18 17:53:10;;;;;;;13.93;6.65;;;;;;;14.63;48.88;102554.72;4887469;29;20449;-87
2023/05/18 17:59:38;;;;;;;11.10;6.57;;;;;;;14.66;49.93;102579.94;4887084;29;20040;-87
2023/05/18 18:02:54;;;;;;;9.93;6.07;;;;;;;14.52;50.79;102567.06;4870290;29;20052;-87
2023/05/18 18:05:44;;;;;;;;;;;;;;;14.62;50.45;102579.09;4869606;29;20044;-87
2023/05/18 18:09:00;;;;;;;10.40;6.13;;;;;;;14.41;49.66;102569.78;4868175;29;19915;-87
2023/05/18 18:12:31;;;;;;;13.82;5.70;;;;;;;14.27;49.83;102552.53;4864524;29;20572;-87
2023/05/18 18:15:17;;;;;;;11.90;5.80;;;;;;;14.28;50.11;102572.53;4910817;29;20039;-87
2023/05/18 18:18:18;;;;;;;14.45;6.13;;;;;;;14.15;51.29;102563.97;4903742;29;20040;-87
2023/05/18 18:25:11;;;;;;;11.45;6.05;;;;;;;14.14;51.37;102589.19;4794442;29;20133;-87
2023/05/18 18:28:22;;;;;;;8.45;5.20;;;;;;;14.07;50.63;102595.34;4790098;29;20061;-87
2023/05/18 18:31:48;;;;;;;10.07;5.63;;;;;;;13.96;51.70;102583.31;4781338;29;20134;-87